C09

Morris Municipal - James R Washburn Field Airport

Morris, Illinois, USA
METAR KC09 181315Z AUTO 00000KT 10SM OVC022 M01/M04 A3013 RMK AO2 T10151037
Observed Flight Rules
Jan-18 @ 13:15 UTC (31 minutes ago) Marginal Visual Flight Rules
Visibility Clouds
10 miles
  • Overcast at 2,200' AGL
Temperatures Readings
Current -2°C / 28°F
Dewpoint -4°C / 25°F
Humidity 86%
Altimeter 30.13" Hg
Pressure 1020.32 hPa
Elevation 178
METAR KC09 181315Z AUTO 00000KT 10SM OVC022 M01/M04 A3013 RMK AO2 T10151037
Observed Flight Rules
Jan-18 @ 13:15 UTC
(31 minutes ago)
MVFR
Clouds
  • Overcast at 2,200' AGL
Temperature Dewpoint
-2°C / 28°F -4°C / 25°F
Humidity Altimeter Pressure
86% 30.13" Hg 1020.32 hPa